sensor_id;sensor_type;location;lat;lon;timestamp;P1;durP1;ratioP1;P2;durP2;ratioP2
77191;SDS011;66172;48.526;8.078;2023-05-07T00:00:38;4.22;;;1.60;;
77191;SDS011;66172;48.526;8.078;2023-05-07T00:03:04;5.63;;;1.60;;
77191;SDS011;66172;48.526;8.078;2023-05-07T00:05:29;7.73;;;2.20;;
77191;SDS011;66172;48.526;8.078;2023-05-07T00:07:55;4.72;;;1.80;;
77191;SDS011;66172;48.526;8.078;2023-05-07T00:10:21;4.57;;;1.88;;
77191;SDS011;66172;48.526;8.078;2023-05-07T00:12:47;9.73;;;1.67;;
77191;SDS011;66172;48.526;8.078;2023-05-07T00:15:13;5.97;;;1.80;;
77191;SDS011;66172;48.526;8.078;2023-05-07T00:17:39;7.07;;;1.83;;
77191;SDS011;66172;48.526;8.078;2023-05-07T00:20:05;7.25;;;3.13;;
77191;SDS011;66172;48.526;8.078;2023-05-07T00:22:31;5.53;;;1.50;;
77191;SDS011;66172;48.526;8.078;2023-05-07T00:24:58;5.90;;;1.63;;
77191;SDS011;66172;48.526;8.078;2023-05-07T00:27:24;7.25;;;1.75;;
77191;SDS011;66172;48.526;8.078;2023-05-07T00:29:50;4.10;;;1.30;;
77191;SDS011;66172;48.526;8.078;2023-05-07T00:32:16;6.72;;;1.60;;
77191;SDS011;66172;48.526;8.078;2023-05-07T00:34:42;4.90;;;1.53;;
77191;SDS011;66172;48.526;8.078;2023-05-07T00:37:09;5.85;;;1.80;;
77191;SDS011;66172;48.526;8.078;2023-05-07T00:39:35;6.15;;;2.38;;
77191;SDS011;66172;48.526;8.078;2023-05-07T00:42:01;4.93;;;1.80;;
77191;SDS011;66172;48.526;8.078;2023-05-07T00:44:28;4.97;;;1.63;;
77191;SDS011;66172;48.526;8.078;2023-05-07T00:46:55;5.97;;;1.58;;
77191;SDS011;66172;48.526;8.078;2023-05-07T00:49:22;4.47;;;1.88;;
77191;SDS011;66172;48.526;8.078;2023-05-07T00:51:59;4.63;;;1.42;;
77191;SDS011;66172;48.526;8.078;2023-05-07T00:54:26;6.65;;;1.85;;
77191;SDS011;66172;48.526;8.078;2023-05-07T00:56:52;5.30;;;1.60;;
77191;SDS011;66172;48.526;8.078;2023-05-07T00:59:17;4.68;;;1.42;;
77191;SDS011;66172;48.526;8.078;2023-05-07T01:01:44;4.32;;;1.60;;
77191;SDS011;66172;48.526;8.078;2023-05-07T01:04:10;4.32;;;1.55;;
77191;SDS011;66172;48.526;8.078;2023-05-07T01:06:36;6.57;;;1.57;;
77191;SDS011;66172;48.526;8.078;2023-05-07T01:09:04;5.05;;;1.58;;
77191;SDS011;66172;48.526;8.078;2023-05-07T01:11:30;4.82;;;1.65;;
77191;SDS011;66172;48.526;8.078;2023-05-07T01:13:57;6.65;;;1.60;;
77191;SDS011;66172;48.526;8.078;2023-05-07T01:16:25;5.15;;;1.50;;
77191;SDS011;66172;48.526;8.078;2023-05-07T01:18:50;5.13;;;1.47;;
77191;SDS011;66172;48.526;8.078;2023-05-07T01:21:16;4.90;;;1.65;;
77191;SDS011;66172;48.526;8.078;2023-05-07T01:23:43;7.78;;;1.65;;
77191;SDS011;66172;48.526;8.078;2023-05-07T01:26:10;5.50;;;1.83;;
77191;SDS011;66172;48.526;8.078;2023-05-07T01:28:36;5.90;;;2.10;;
77191;SDS011;66172;48.526;8.078;2023-05-07T01:31:02;6.75;;;2.10;;
77191;SDS011;66172;48.526;8.078;2023-05-07T01:33:32;5.55;;;2.03;;
77191;SDS011;66172;48.526;8.078;2023-05-07T01:36:00;6.78;;;1.60;;
77191;SDS011;66172;48.526;8.078;2023-05-07T01:38:29;4.30;;;1.60;;
77191;SDS011;66172;48.526;8.078;2023-05-07T01:40:55;5.23;;;1.60;;
77191;SDS011;66172;48.526;8.078;2023-05-07T01:43:21;5.00;;;1.60;;
77191;SDS011;66172;48.526;8.078;2023-05-07T01:45:47;9.63;;;2.00;;
77191;SDS011;66172;48.526;8.078;2023-05-07T01:48:14;6.13;;;1.70;;
77191;SDS011;66172;48.526;8.078;2023-05-07T01:50:41;6.80;;;1.50;;
77191;SDS011;66172;48.526;8.078;2023-05-07T01:53:08;4.78;;;1.65;;
77191;SDS011;66172;48.526;8.078;2023-05-07T01:55:34;5.40;;;1.55;;
77191;SDS011;66172;48.526;8.078;2023-05-07T01:58:02;5.35;;;1.60;;
77191;SDS011;66172;48.526;8.078;2023-05-07T02:00:28;6.90;;;2.08;;
77191;SDS011;66172;48.526;8.078;2023-05-07T02:02:54;6.00;;;2.07;;
77191;SDS011;66172;48.526;8.078;2023-05-07T02:05:20;6.70;;;2.05;;
77191;SDS011;66172;48.526;8.078;2023-05-07T02:07:46;5.13;;;2.20;;
77191;SDS011;66172;48.526;8.078;2023-05-07T02:10:12;6.55;;;2.10;;
77191;SDS011;66172;48.526;8.078;2023-05-07T02:12:38;5.13;;;1.90;;
77191;SDS011;66172;48.526;8.078;2023-05-07T02:15:04;5.32;;;2.33;;
77191;SDS011;66172;48.526;8.078;2023-05-07T02:17:31;5.40;;;2.10;;
77191;SDS011;66172;48.526;8.078;2023-05-07T02:19:58;9.18;;;2.30;;
77191;SDS011;66172;48.526;8.078;2023-05-07T02:22:25;5.20;;;2.00;;
77191;SDS011;66172;48.526;8.078;2023-05-07T02:24:51;5.65;;;2.33;;
77191;SDS011;66172;48.526;8.078;2023-05-07T02:27:17;5.47;;;2.17;;
77191;SDS011;66172;48.526;8.078;2023-05-07T02:29:42;5.22;;;2.20;;
77191;SDS011;66172;48.526;8.078;2023-05-07T02:32:08;6.97;;;2.17;;
77191;SDS011;66172;48.526;8.078;2023-05-07T02:34:34;5.63;;;1.80;;
77191;SDS011;66172;48.526;8.078;2023-05-07T02:37:00;5.43;;;2.15;;
77191;SDS011;66172;48.526;8.078;2023-05-07T02:39:26;5.07;;;2.13;;
77191;SDS011;66172;48.526;8.078;2023-05-07T02:41:52;8.43;;;2.10;;
77191;SDS011;66172;48.526;8.078;2023-05-07T02:44:18;4.93;;;2.05;;
77191;SDS011;66172;48.526;8.078;2023-05-07T02:46:44;5.03;;;1.90;;
77191;SDS011;66172;48.526;8.078;2023-05-07T02:49:09;10.80;;;2.20;;
77191;SDS011;66172;48.526;8.078;2023-05-07T02:51:35;5.38;;;2.20;;
77191;SDS011;66172;48.526;8.078;2023-05-07T02:54:01;6.90;;;1.88;;
77191;SDS011;66172;48.526;8.078;2023-05-07T02:56:27;6.47;;;2.10;;
77191;SDS011;66172;48.526;8.078;2023-05-07T02:58:53;5.78;;;1.73;;
77191;SDS011;66172;48.526;8.078;2023-05-07T03:01:19;4.78;;;1.65;;
77191;SDS011;66172;48.526;8.078;2023-05-07T03:03:46;8.35;;;1.85;;
77191;SDS011;66172;48.526;8.078;2023-05-07T03:06:12;7.10;;;1.93;;
77191;SDS011;66172;48.526;8.078;2023-05-07T03:08:38;5.55;;;1.90;;
77191;SDS011;66172;48.526;8.078;2023-05-07T03:11:03;6.25;;;2.08;;
77191;SDS011;66172;48.526;8.078;2023-05-07T03:13:29;7.07;;;1.93;;
77191;SDS011;66172;48.526;8.078;2023-05-07T03:15:55;5.90;;;2.05;;
77191;SDS011;66172;48.526;8.078;2023-05-07T03:18:21;6.07;;;2.25;;
77191;SDS011;66172;48.526;8.078;2023-05-07T03:20:47;6.10;;;2.33;;
77191;SDS011;66172;48.526;8.078;2023-05-07T03:23:14;5.80;;;2.38;;
77191;SDS011;66172;48.526;8.078;2023-05-07T03:25:39;5.28;;;2.22;;
77191;SDS011;66172;48.526;8.078;2023-05-07T03:28:05;5.90;;;1.80;;
77191;SDS011;66172;48.526;8.078;2023-05-07T03:30:31;5.63;;;1.90;;
77191;SDS011;66172;48.526;8.078;2023-05-07T03:32:57;6.03;;;2.05;;
77191;SDS011;66172;48.526;8.078;2023-05-07T03:35:23;12.23;;;2.38;;
77191;SDS011;66172;48.526;8.078;2023-05-07T03:37:49;5.23;;;1.80;;
77191;SDS011;66172;48.526;8.078;2023-05-07T03:40:15;6.00;;;2.08;;
77191;SDS011;66172;48.526;8.078;2023-05-07T03:42:41;4.90;;;2.13;;
77191;SDS011;66172;48.526;8.078;2023-05-07T03:45:07;5.53;;;2.10;;
77191;SDS011;66172;48.526;8.078;2023-05-07T03:47:33;5.57;;;2.20;;
77191;SDS011;66172;48.526;8.078;2023-05-07T03:49:59;7.15;;;2.30;;
77191;SDS011;66172;48.526;8.078;2023-05-07T03:52:25;6.18;;;2.22;;
77191;SDS011;66172;48.526;8.078;2023-05-07T03:54:52;7.72;;;2.08;;
77191;SDS011;66172;48.526;8.078;2023-05-07T03:57:19;7.10;;;1.80;;
77191;SDS011;66172;48.526;8.078;2023-05-07T03:59:45;5.90;;;2.08;;
77191;SDS011;66172;48.526;8.078;2023-05-07T04:02:11;5.68;;;1.98;;
77191;SDS011;66172;48.526;8.078;2023-05-07T04:04:37;5.55;;;2.05;;
77191;SDS011;66172;48.526;8.078;2023-05-07T04:07:03;7.47;;;2.30;;
77191;SDS011;66172;48.526;8.078;2023-05-07T04:09:28;5.68;;;2.10;;
77191;SDS011;66172;48.526;8.078;2023-05-07T04:11:54;5.63;;;2.13;;
77191;SDS011;66172;48.526;8.078;2023-05-07T04:14:20;6.73;;;2.27;;
77191;SDS011;66172;48.526;8.078;2023-05-07T04:16:46;5.10;;;2.30;;
77191;SDS011;66172;48.526;8.078;2023-05-07T04:19:12;6.97;;;2.63;;
77191;SDS011;66172;48.526;8.078;2023-05-07T04:21:38;5.47;;;2.10;;
77191;SDS011;66172;48.526;8.078;2023-05-07T04:24:04;6.60;;;3.00;;
77191;SDS011;66172;48.526;8.078;2023-05-07T04:26:30;7.72;;;2.97;;
77191;SDS011;66172;48.526;8.078;2023-05-07T04:28:57;7.53;;;2.92;;
77191;SDS011;66172;48.526;8.078;2023-05-07T04:31:24;7.72;;;2.60;;
77191;SDS011;66172;48.526;8.078;2023-05-07T04:33:50;5.20;;;2.60;;
77191;SDS011;66172;48.526;8.078;2023-05-07T04:36:17;6.70;;;3.00;;
77191;SDS011;66172;48.526;8.078;2023-05-07T04:38:43;5.20;;;2.53;;
77191;SDS011;66172;48.526;8.078;2023-05-07T04:41:09;6.50;;;2.38;;
77191;SDS011;66172;48.526;8.078;2023-05-07T04:43:35;6.17;;;2.40;;
77191;SDS011;66172;48.526;8.078;2023-05-07T04:46:01;5.00;;;2.30;;
77191;SDS011;66172;48.526;8.078;2023-05-07T04:48:27;5.90;;;2.33;;
77191;SDS011;66172;48.526;8.078;2023-05-07T04:50:54;6.30;;;2.40;;
77191;SDS011;66172;48.526;8.078;2023-05-07T04:53:20;6.83;;;2.63;;
77191;SDS011;66172;48.526;8.078;2023-05-07T04:55:46;6.72;;;2.10;;
77191;SDS011;66172;48.526;8.078;2023-05-07T04:58:12;5.78;;;2.45;;
77191;SDS011;66172;48.526;8.078;2023-05-07T05:00:39;5.15;;;2.22;;
77191;SDS011;66172;48.526;8.078;2023-05-07T05:03:08;5.43;;;2.03;;
77191;SDS011;66172;48.526;8.078;2023-05-07T05:05:34;6.10;;;2.17;;
77191;SDS011;66172;48.526;8.078;2023-05-07T05:08:00;6.63;;;2.40;;
77191;SDS011;66172;48.526;8.078;2023-05-07T05:10:25;8.90;;;2.30;;
77191;SDS011;66172;48.526;8.078;2023-05-07T05:12:51;5.65;;;2.17;;
77191;SDS011;66172;48.526;8.078;2023-05-07T05:15:17;4.30;;;1.90;;
77191;SDS011;66172;48.526;8.078;2023-05-07T05:17:43;4.90;;;1.95;;
77191;SDS011;66172;48.526;8.078;2023-05-07T05:20:09;5.50;;;2.10;;
77191;SDS011;66172;48.526;8.078;2023-05-07T05:22:37;7.40;;;2.33;;
77191;SDS011;66172;48.526;8.078;2023-05-07T05:25:03;6.00;;;2.10;;
77191;SDS011;66172;48.526;8.078;2023-05-07T05:27:29;5.65;;;2.00;;
77191;SDS011;66172;48.526;8.078;2023-05-07T05:29:55;8.25;;;2.20;;
77191;SDS011;66172;48.526;8.078;2023-05-07T05:32:21;5.10;;;2.22;;
77191;SDS011;66172;48.526;8.078;2023-05-07T05:34:47;9.27;;;2.67;;
77191;SDS011;66172;48.526;8.078;2023-05-07T05:37:13;6.85;;;2.38;;
77191;SDS011;66172;48.526;8.078;2023-05-07T05:39:39;5.47;;;1.92;;
77191;SDS011;66172;48.526;8.078;2023-05-07T05:42:05;5.17;;;2.00;;
77191;SDS011;66172;48.526;8.078;2023-05-07T05:44:30;5.95;;;2.00;;
77191;SDS011;66172;48.526;8.078;2023-05-07T05:46:56;7.60;;;3.00;;
77191;SDS011;66172;48.526;8.078;2023-05-07T05:49:24;5.30;;;2.25;;
77191;SDS011;66172;48.526;8.078;2023-05-07T05:51:51;7.17;;;2.23;;
77191;SDS011;66172;48.526;8.078;2023-05-07T05:54:17;5.32;;;1.90;;
77191;SDS011;66172;48.526;8.078;2023-05-07T05:56:42;4.38;;;1.75;;
77191;SDS011;66172;48.526;8.078;2023-05-07T05:59:08;6.05;;;1.90;;
77191;SDS011;66172;48.526;8.078;2023-05-07T06:01:34;6.60;;;2.10;;
77191;SDS011;66172;48.526;8.078;2023-05-07T06:04:00;6.05;;;2.00;;
77191;SDS011;66172;48.526;8.078;2023-05-07T06:06:26;4.47;;;2.05;;
77191;SDS011;66172;48.526;8.078;2023-05-07T06:08:52;4.80;;;2.07;;
77191;SDS011;66172;48.526;8.078;2023-05-07T06:11:18;5.10;;;2.30;;
77191;SDS011;66172;48.526;8.078;2023-05-07T06:13:44;5.53;;;1.98;;
77191;SDS011;66172;48.526;8.078;2023-05-07T06:16:10;5.32;;;2.30;;
77191;SDS011;66172;48.526;8.078;2023-05-07T06:18:36;5.93;;;2.57;;
77191;SDS011;66172;48.526;8.078;2023-05-07T06:21:02;6.95;;;2.47;;
77191;SDS011;66172;48.526;8.078;2023-05-07T06:23:28;5.88;;;2.25;;
77191;SDS011;66172;48.526;8.078;2023-05-07T06:25:54;5.60;;;2.60;;
77191;SDS011;66172;48.526;8.078;2023-05-07T06:28:19;8.30;;;3.08;;
77191;SDS011;66172;48.526;8.078;2023-05-07T06:30:45;5.90;;;3.08;;
77191;SDS011;66172;48.526;8.078;2023-05-07T06:33:11;6.23;;;3.30;;
77191;SDS011;66172;48.526;8.078;2023-05-07T06:35:37;7.60;;;3.58;;
77191;SDS011;66172;48.526;8.078;2023-05-07T06:38:03;6.45;;;3.50;;
77191;SDS011;66172;48.526;8.078;2023-05-07T06:40:29;9.50;;;3.72;;
77191;SDS011;66172;48.526;8.078;2023-05-07T06:42:55;8.77;;;3.50;;
77191;SDS011;66172;48.526;8.078;2023-05-07T06:45:21;7.55;;;3.50;;
77191;SDS011;66172;48.526;8.078;2023-05-07T06:47:46;6.70;;;3.42;;
77191;SDS011;66172;48.526;8.078;2023-05-07T06:50:12;5.73;;;3.40;;
77191;SDS011;66172;48.526;8.078;2023-05-07T06:52:38;7.97;;;3.50;;
77191;SDS011;66172;48.526;8.078;2023-05-07T06:55:04;7.68;;;3.88;;
77191;SDS011;66172;48.526;8.078;2023-05-07T06:57:31;9.23;;;4.30;;
77191;SDS011;66172;48.526;8.078;2023-05-07T06:59:57;7.88;;;4.40;;
77191;SDS011;66172;48.526;8.078;2023-05-07T07:02:23;7.10;;;4.33;;
77191;SDS011;66172;48.526;8.078;2023-05-07T07:04:48;7.68;;;4.57;;
77191;SDS011;66172;48.526;8.078;2023-05-07T07:07:14;9.70;;;4.47;;
77191;SDS011;66172;48.526;8.078;2023-05-07T07:09:40;6.70;;;4.00;;
77191;SDS011;66172;48.526;8.078;2023-05-07T07:12:06;8.18;;;4.05;;
77191;SDS011;66172;48.526;8.078;2023-05-07T07:14:32;8.13;;;3.80;;
77191;SDS011;66172;48.526;8.078;2023-05-07T07:16:58;8.13;;;3.78;;
77191;SDS011;66172;48.526;8.078;2023-05-07T07:19:24;9.67;;;4.53;;
77191;SDS011;66172;48.526;8.078;2023-05-07T07:21:51;11.15;;;4.45;;
77191;SDS011;66172;48.526;8.078;2023-05-07T07:24:17;7.22;;;3.90;;
77191;SDS011;66172;48.526;8.078;2023-05-07T07:26:46;13.43;;;4.32;;
77191;SDS011;66172;48.526;8.078;2023-05-07T07:29:13;8.07;;;3.83;;
77191;SDS011;66172;48.526;8.078;2023-05-07T07:31:39;7.78;;;4.15;;
77191;SDS011;66172;48.526;8.078;2023-05-07T07:34:05;8.52;;;4.45;;
77191;SDS011;66172;48.526;8.078;2023-05-07T07:36:30;7.25;;;4.35;;
77191;SDS011;66172;48.526;8.078;2023-05-07T07:38:56;7.10;;;4.07;;
77191;SDS011;66172;48.526;8.078;2023-05-07T07:41:22;7.15;;;3.88;;
77191;SDS011;66172;48.526;8.078;2023-05-07T07:43:48;10.23;;;3.90;;
77191;SDS011;66172;48.526;8.078;2023-05-07T07:46:14;7.13;;;3.90;;
77191;SDS011;66172;48.526;8.078;2023-05-07T07:48:40;7.35;;;3.60;;
77191;SDS011;66172;48.526;8.078;2023-05-07T07:51:06;8.27;;;3.30;;
77191;SDS011;66172;48.526;8.078;2023-05-07T07:53:32;6.63;;;3.53;;
77191;SDS011;66172;48.526;8.078;2023-05-07T07:55:57;6.27;;;2.90;;
77191;SDS011;66172;48.526;8.078;2023-05-07T07:58:23;8.43;;;3.10;;
77191;SDS011;66172;48.526;8.078;2023-05-07T08:00:50;6.68;;;3.13;;
77191;SDS011;66172;48.526;8.078;2023-05-07T08:03:16;5.97;;;2.88;;
77191;SDS011;66172;48.526;8.078;2023-05-07T08:05:42;5.53;;;2.83;;
77191;SDS011;66172;48.526;8.078;2023-05-07T08:08:08;6.25;;;3.40;;
77191;SDS011;66172;48.526;8.078;2023-05-07T08:10:34;6.47;;;3.03;;
77191;SDS011;66172;48.526;8.078;2023-05-07T08:13:03;6.22;;;2.83;;
77191;SDS011;66172;48.526;8.078;2023-05-07T08:15:29;5.43;;;3.00;;
77191;SDS011;66172;48.526;8.078;2023-05-07T08:17:55;6.00;;;2.90;;
77191;SDS011;66172;48.526;8.078;2023-05-07T08:20:23;6.28;;;2.60;;
77191;SDS011;66172;48.526;8.078;2023-05-07T08:22:49;6.03;;;2.60;;
77191;SDS011;66172;48.526;8.078;2023-05-07T08:25:15;5.13;;;2.70;;
77191;SDS011;66172;48.526;8.078;2023-05-07T08:27:41;5.33;;;2.60;;
77191;SDS011;66172;48.526;8.078;2023-05-07T08:30:07;6.53;;;2.42;;
77191;SDS011;66172;48.526;8.078;2023-05-07T08:32:33;4.95;;;2.60;;
77191;SDS011;66172;48.526;8.078;2023-05-07T08:34:59;5.95;;;2.60;;
77191;SDS011;66172;48.526;8.078;2023-05-07T08:37:25;6.27;;;2.90;;
77191;SDS011;66172;48.526;8.078;2023-05-07T08:39:51;7.28;;;3.03;;
77191;SDS011;66172;48.526;8.078;2023-05-07T08:42:17;7.05;;;2.67;;
77191;SDS011;66172;48.526;8.078;2023-05-07T08:44:45;6.45;;;2.72;;
77191;SDS011;66172;48.526;8.078;2023-05-07T08:47:12;5.83;;;2.50;;
77191;SDS011;66172;48.526;8.078;2023-05-07T08:49:38;5.70;;;2.60;;
77191;SDS011;66172;48.526;8.078;2023-05-07T08:52:04;4.88;;;2.90;;
77191;SDS011;66172;48.526;8.078;2023-05-07T08:54:31;5.07;;;2.65;;
77191;SDS011;66172;48.526;8.078;2023-05-07T08:56:57;6.25;;;2.95;;
77191;SDS011;66172;48.526;8.078;2023-05-07T08:59:23;5.80;;;2.90;;
77191;SDS011;66172;48.526;8.078;2023-05-07T09:01:49;5.47;;;2.78;;
77191;SDS011;66172;48.526;8.078;2023-05-07T09:04:15;5.82;;;2.60;;
77191;SDS011;66172;48.526;8.078;2023-05-07T09:06:41;7.43;;;2.97;;
77191;SDS011;66172;48.526;8.078;2023-05-07T09:09:07;5.93;;;2.67;;
77191;SDS011;66172;48.526;8.078;2023-05-07T09:11:33;6.05;;;3.20;;
77191;SDS011;66172;48.526;8.078;2023-05-07T09:13:59;6.85;;;3.10;;
77191;SDS011;66172;48.526;8.078;2023-05-07T09:16:28;6.72;;;2.97;;
77191;SDS011;66172;48.526;8.078;2023-05-07T09:18:56;6.90;;;2.90;;
77191;SDS011;66172;48.526;8.078;2023-05-07T09:21:23;6.57;;;2.90;;
77191;SDS011;66172;48.526;8.078;2023-05-07T09:23:52;6.35;;;3.40;;
77191;SDS011;66172;48.526;8.078;2023-05-07T09:26:22;5.55;;;3.50;;
77191;SDS011;66172;48.526;8.078;2023-05-07T09:28:48;7.15;;;3.83;;
77191;SDS011;66172;48.526;8.078;2023-05-07T09:31:14;7.70;;;3.90;;
77191;SDS011;66172;48.526;8.078;2023-05-07T09:33:40;7.70;;;4.15;;
77191;SDS011;66172;48.526;8.078;2023-05-07T09:36:07;6.75;;;3.85;;
77191;SDS011;66172;48.526;8.078;2023-05-07T09:38:34;5.88;;;4.00;;
77191;SDS011;66172;48.526;8.078;2023-05-07T09:41:08;5.93;;;3.67;;
77191;SDS011;66172;48.526;8.078;2023-05-07T09:43:36;8.57;;;3.70;;
77191;SDS011;66172;48.526;8.078;2023-05-07T09:46:07;6.25;;;3.60;;
77191;SDS011;66172;48.526;8.078;2023-05-07T09:48:40;6.57;;;3.78;;
77191;SDS011;66172;48.526;8.078;2023-05-07T09:51:24;7.40;;;4.32;;
77191;SDS011;66172;48.526;8.078;2023-05-07T09:53:54;6.90;;;4.30;;
77191;SDS011;66172;48.526;8.078;2023-05-07T09:56:21;6.82;;;4.55;;
77191;SDS011;66172;48.526;8.078;2023-05-07T09:58:48;7.55;;;4.30;;
77191;SDS011;66172;48.526;8.078;2023-05-07T10:01:15;6.55;;;4.28;;
77191;SDS011;66172;48.526;8.078;2023-05-07T10:03:42;7.13;;;4.20;;
77191;SDS011;66172;48.526;8.078;2023-05-07T10:06:09;7.60;;;4.50;;
77191;SDS011;66172;48.526;8.078;2023-05-07T10:08:38;6.82;;;4.18;;
77191;SDS011;66172;48.526;8.078;2023-05-07T10:11:05;5.57;;;3.65;;
77191;SDS011;66172;48.526;8.078;2023-05-07T10:13:32;10.70;;;3.97;;
77191;SDS011;66172;48.526;8.078;2023-05-07T10:16:01;7.15;;;3.92;;
77191;SDS011;66172;48.526;8.078;2023-05-07T10:18:29;6.60;;;3.80;;
77191;SDS011;66172;48.526;8.078;2023-05-07T10:21:17;7.40;;;4.00;;
77191;SDS011;66172;48.526;8.078;2023-05-07T10:23:45;7.25;;;3.50;;
77191;SDS011;66172;48.526;8.078;2023-05-07T10:26:17;8.43;;;3.65;;
77191;SDS011;66172;48.526;8.078;2023-05-07T10:28:46;6.53;;;3.83;;
77191;SDS011;66172;48.526;8.078;2023-05-07T10:34:10;6.30;;;3.50;;
77191;SDS011;66172;48.526;8.078;2023-05-07T10:36:40;6.40;;;3.53;;
77191;SDS011;66172;48.526;8.078;2023-05-07T10:39:07;9.65;;;3.80;;
77191;SDS011;66172;48.526;8.078;2023-05-07T10:41:33;6.65;;;3.50;;
77191;SDS011;66172;48.526;8.078;2023-05-07T10:43:59;7.50;;;3.30;;
77191;SDS011;66172;48.526;8.078;2023-05-07T10:46:27;6.93;;;3.58;;
77191;SDS011;66172;48.526;8.078;2023-05-07T10:51:29;5.53;;;3.40;;
77191;SDS011;66172;48.526;8.078;2023-05-07T10:54:42;5.93;;;3.22;;
77191;SDS011;66172;48.526;8.078;2023-05-07T10:56:45;6.03;;;2.87;;
77191;SDS011;66172;48.526;8.078;2023-05-07T11:01:59;6.47;;;3.00;;
77191;SDS011;66172;48.526;8.078;2023-05-07T11:04:29;5.80;;;2.88;;
77191;SDS011;66172;48.526;8.078;2023-05-07T11:17:54;7.38;;;3.25;;
77191;SDS011;66172;48.526;8.078;2023-05-07T11:26:10;7.57;;;3.30;;
77191;SDS011;66172;48.526;8.078;2023-05-07T11:28:37;6.65;;;2.90;;
77191;SDS011;66172;48.526;8.078;2023-05-07T11:31:04;7.43;;;2.97;;
77191;SDS011;66172;48.526;8.078;2023-05-07T11:33:31;6.57;;;2.80;;
77191;SDS011;66172;48.526;8.078;2023-05-07T11:35:57;7.17;;;3.20;;
77191;SDS011;66172;48.526;8.078;2023-05-07T11:38:24;6.90;;;3.20;;
77191;SDS011;66172;48.526;8.078;2023-05-07T11:40:54;6.20;;;2.88;;
77191;SDS011;66172;48.526;8.078;2023-05-07T11:43:21;6.53;;;3.03;;
77191;SDS011;66172;48.526;8.078;2023-05-07T11:45:47;6.45;;;3.20;;
77191;SDS011;66172;48.526;8.078;2023-05-07T11:48:14;5.47;;;3.03;;
77191;SDS011;66172;48.526;8.078;2023-05-07T11:50:50;5.22;;;3.13;;
77191;SDS011;66172;48.526;8.078;2023-05-07T11:53:18;8.35;;;2.92;;
77191;SDS011;66172;48.526;8.078;2023-05-07T11:55:45;5.53;;;2.90;;
77191;SDS011;66172;48.526;8.078;2023-05-07T11:58:12;6.07;;;3.25;;
77191;SDS011;66172;48.526;8.078;2023-05-07T12:00:52;7.57;;;2.93;;
77191;SDS011;66172;48.526;8.078;2023-05-07T12:03:19;8.85;;;2.80;;
77191;SDS011;66172;48.526;8.078;2023-05-07T12:05:45;7.35;;;2.70;;
77191;SDS011;66172;48.526;8.078;2023-05-07T12:08:15;5.38;;;2.38;;
77191;SDS011;66172;48.526;8.078;2023-05-07T12:10:42;5.05;;;2.30;;
77191;SDS011;66172;48.526;8.078;2023-05-07T12:13:15;6.30;;;2.53;;
77191;SDS011;66172;48.526;8.078;2023-05-07T12:15:51;4.65;;;2.50;;
77191;SDS011;66172;48.526;8.078;2023-05-07T12:18:21;6.20;;;2.47;;
77191;SDS011;66172;48.526;8.078;2023-05-07T12:20:48;7.38;;;2.47;;
77191;SDS011;66172;48.526;8.078;2023-05-07T12:23:15;6.38;;;2.65;;
77191;SDS011;66172;48.526;8.078;2023-05-07T12:25:42;5.23;;;2.50;;
77191;SDS011;66172;48.526;8.078;2023-05-07T12:28:12;5.97;;;2.90;;
77191;SDS011;66172;48.526;8.078;2023-05-07T12:30:43;5.80;;;2.63;;
77191;SDS011;66172;48.526;8.078;2023-05-07T12:33:10;6.55;;;2.40;;
77191;SDS011;66172;48.526;8.078;2023-05-07T12:35:37;6.00;;;2.55;;
77191;SDS011;66172;48.526;8.078;2023-05-07T12:38:09;5.67;;;2.53;;
77191;SDS011;66172;48.526;8.078;2023-05-07T12:43:04;6.32;;;2.65;;
77191;SDS011;66172;48.526;8.078;2023-05-07T12:45:30;6.03;;;2.33;;
77191;SDS011;66172;48.526;8.078;2023-05-07T12:47:57;5.63;;;2.40;;
77191;SDS011;66172;48.526;8.078;2023-05-07T12:50:30;6.80;;;2.67;;
77191;SDS011;66172;48.526;8.078;2023-05-07T12:52:57;6.32;;;2.53;;
77191;SDS011;66172;48.526;8.078;2023-05-07T12:55:23;5.47;;;2.53;;
77191;SDS011;66172;48.526;8.078;2023-05-07T12:57:49;5.53;;;2.40;;
77191;SDS011;66172;48.526;8.078;2023-05-07T13:00:16;4.97;;;2.40;;
77191;SDS011;66172;48.526;8.078;2023-05-07T13:02:42;7.35;;;2.40;;
77191;SDS011;66172;48.526;8.078;2023-05-07T13:05:11;5.88;;;2.28;;
77191;SDS011;66172;48.526;8.078;2023-05-07T13:07:37;7.05;;;2.15;;
77191;SDS011;66172;48.526;8.078;2023-05-07T13:10:03;5.85;;;2.13;;
77191;SDS011;66172;48.526;8.078;2023-05-07T13:12:30;7.07;;;2.60;;
77191;SDS011;66172;48.526;8.078;2023-05-07T13:14:56;6.03;;;2.88;;
77191;SDS011;66172;48.526;8.078;2023-05-07T13:17:21;7.43;;;2.85;;
77191;SDS011;66172;48.526;8.078;2023-05-07T13:19:47;4.82;;;2.65;;
77191;SDS011;66172;48.526;8.078;2023-05-07T13:22:13;7.90;;;3.20;;
77191;SDS011;66172;48.526;8.078;2023-05-07T13:24:39;6.72;;;3.10;;
77191;SDS011;66172;48.526;8.078;2023-05-07T13:27:07;6.70;;;3.10;;
77191;SDS011;66172;48.526;8.078;2023-05-07T13:29:33;7.80;;;3.20;;
77191;SDS011;66172;48.526;8.078;2023-05-07T13:31:59;6.35;;;3.28;;
77191;SDS011;66172;48.526;8.078;2023-05-07T13:34:25;7.57;;;3.80;;
77191;SDS011;66172;48.526;8.078;2023-05-07T13:36:51;7.47;;;3.22;;
77191;SDS011;66172;48.526;8.078;2023-05-07T13:39:17;7.03;;;4.17;;
77191;SDS011;66172;48.526;8.078;2023-05-07T13:41:43;6.60;;;3.45;;
77191;SDS011;66172;48.526;8.078;2023-05-07T13:44:08;8.40;;;3.80;;
77191;SDS011;66172;48.526;8.078;2023-05-07T13:46:35;9.05;;;3.90;;
77191;SDS011;66172;48.526;8.078;2023-05-07T13:49:01;7.30;;;3.60;;
77191;SDS011;66172;48.526;8.078;2023-05-07T13:51:27;7.55;;;4.20;;
77191;SDS011;66172;48.526;8.078;2023-05-07T13:53:53;7.35;;;3.63;;
77191;SDS011;66172;48.526;8.078;2023-05-07T13:56:19;8.32;;;4.03;;
77191;SDS011;66172;48.526;8.078;2023-05-07T13:58:46;7.63;;;3.60;;
77191;SDS011;66172;48.526;8.078;2023-05-07T14:01:12;7.00;;;3.70;;
77191;SDS011;66172;48.526;8.078;2023-05-07T14:03:38;7.65;;;3.33;;
77191;SDS011;66172;48.526;8.078;2023-05-07T14:06:05;7.65;;;3.40;;
77191;SDS011;66172;48.526;8.078;2023-05-07T14:08:31;6.27;;;3.07;;
77191;SDS011;66172;48.526;8.078;2023-05-07T14:10:57;5.50;;;2.90;;
77191;SDS011;66172;48.526;8.078;2023-05-07T14:13:23;6.43;;;3.05;;
77191;SDS011;66172;48.526;8.078;2023-05-07T14:15:48;6.63;;;2.80;;
77191;SDS011;66172;48.526;8.078;2023-05-07T14:18:15;5.37;;;2.50;;
77191;SDS011;66172;48.526;8.078;2023-05-07T14:20:41;4.47;;;2.40;;
77191;SDS011;66172;48.526;8.078;2023-05-07T14:23:12;6.32;;;3.00;;
77191;SDS011;66172;48.526;8.078;2023-05-07T14:25:38;5.43;;;2.70;;
77191;SDS011;66172;48.526;8.078;2023-05-07T14:28:03;5.50;;;2.70;;
77191;SDS011;66172;48.526;8.078;2023-05-07T14:30:29;6.50;;;2.60;;
77191;SDS011;66172;48.526;8.078;2023-05-07T14:32:56;7.40;;;2.83;;
77191;SDS011;66172;48.526;8.078;2023-05-07T14:35:21;11.82;;;2.50;;
77191;SDS011;66172;48.526;8.078;2023-05-07T14:37:47;5.53;;;2.90;;
77191;SDS011;66172;48.526;8.078;2023-05-07T14:40:13;10.13;;;4.40;;
77191;SDS011;66172;48.526;8.078;2023-05-07T14:42:40;7.80;;;4.28;;
77191;SDS011;66172;48.526;8.078;2023-05-07T14:45:06;9.90;;;4.70;;
77191;SDS011;66172;48.526;8.078;2023-05-07T14:47:32;5.88;;;3.42;;
77191;SDS011;66172;48.526;8.078;2023-05-07T14:49:58;7.03;;;3.00;;
77191;SDS011;66172;48.526;8.078;2023-05-07T14:52:26;5.63;;;2.50;;
77191;SDS011;66172;48.526;8.078;2023-05-07T14:54:52;6.47;;;2.60;;
77191;SDS011;66172;48.526;8.078;2023-05-07T14:57:18;6.22;;;2.60;;
77191;SDS011;66172;48.526;8.078;2023-05-07T14:59:44;7.38;;;3.15;;
77191;SDS011;66172;48.526;8.078;2023-05-07T15:02:12;6.80;;;3.37;;
77191;SDS011;66172;48.526;8.078;2023-05-07T15:04:38;7.90;;;2.85;;
77191;SDS011;66172;48.526;8.078;2023-05-07T15:07:11;5.65;;;2.75;;
77191;SDS011;66172;48.526;8.078;2023-05-07T15:09:43;5.35;;;2.35;;
77191;SDS011;66172;48.526;8.078;2023-05-07T15:12:10;5.57;;;2.13;;